Terminal Aerodrome Forecast
Issued by NWS Billings, MT

Home | Current Version | Previous Version | Graphics & Text | Print | Product List | Glossary On
Versions: 1 2 3 4 5 6 7 8 9 10 11 12 13 14 15 16
000
FTUS45 KBYZ 222336
TAFMLS
TAF
KMLS 222336Z 2300/2324 02012KT P6SM FEW030 OVC060
     FM230800 04008KT P6SM -RA OVC015
     FM231500 06008KT P6SM VCSH OVC025=

USA.gov is the U.S. government's official web portal to all federal, state and local government web resources and services.